Sunbright, Tennessee
Current Conditions -  °F | °C
As of 7:05 AM on Thursday 27 Nov 2014 (Local Time) from KOQT Reporting Station
Overcast Overcast  
Wind Chill: 36°   Ceiling: 2800
Heat Index: 39°   Visibility: 10mi
Dew Point: 32°   Wind: 5mph
Humidity: 76%   Direction: 270°W
Pressure: 30.14"   Gusts: NA
Location:  36.24°N, 84.67°W
Report Text: KOQT 271205Z AUTO 27004KT 10SM BKN028 OVC037 04/00 A3014 RMK AO2 T00390000
Loading
Personal Weather Stations






























Interactive Weather Map New forecast layout! Learn more

10-Day Weather Forecast

Advertisements
Track Severe Weather on mobile